KMCD

Mackinac Island Airport

Mackinac Island, Michigan, USA
METAR KMCD 172115Z AUTO 24014G23KT 3/4SM -SN OVC007 M03/M04 A2982 RMK AO2 T10281040
Observed Flight Rules
Feb-17 @ 21:15 UTC (22 minutes ago) Instrument Flight Rules
Wind Visibility Clouds Conditions
240° at 14 knots
 Gusting to 23 knots
3/4 miles
  • Overcast at 700' AGL
  • Light Snow
Temperatures Readings
Current -3°C / 27°F
Dewpoint -4°C / 25°F
Humidity 93%
Altimeter 29.82" Hg
Pressure 1010 hPa
Elevation 226
METAR KMCD 172115Z AUTO 24014G23KT 3/4SM -SN OVC007 M03/M04 A2982 RMK AO2 T10281040
Observed Flight Rules
Feb-17 @ 21:15 UTC
(22 minutes ago)
LIFR
Wind Visibility
240° at 14 knots
 Gusting to 23 knots
3/4 miles
Clouds
  • Overcast at 700' AGL
Conditions
  • Light Snow
Temperature Dewpoint
-3°C / 27°F -4°C / 25°F
Humidity Altimeter Pressure
93% 29.82" Hg 1010 hPa